sensor_id;sensor_type;location;lat;lon;timestamp;temperature;humidity
53776;DHT22;44276;49.534;6.378;2023-03-31T00:01:07;12.40;99.90
53776;DHT22;44276;49.534;6.378;2023-03-31T00:03:35;12.30;99.90
53776;DHT22;44276;49.534;6.378;2023-03-31T00:06:11;12.30;99.90
53776;DHT22;44276;49.534;6.378;2023-03-31T00:08:46;12.40;99.90
53776;DHT22;44276;49.534;6.378;2023-03-31T00:11:20;12.50;98.40
53776;DHT22;44276;49.534;6.378;2023-03-31T00:13:49;12.50;92.10
53776;DHT22;44276;49.534;6.378;2023-03-31T00:16:17;12.50;93.70
53776;DHT22;44276;49.534;6.378;2023-03-31T00:18:47;12.60;95.80
53776;DHT22;44276;49.534;6.378;2023-03-31T00:21:18;12.50;99.70
53776;DHT22;44276;49.534;6.378;2023-03-31T00:24:02;12.40;99.40
53776;DHT22;44276;49.534;6.378;2023-03-31T00:26:32;12.50;97.10
53776;DHT22;44276;49.534;6.378;2023-03-31T00:29:03;12.40;99.50
53776;DHT22;44276;49.534;6.378;2023-03-31T00:31:33;12.40;98.30
53776;DHT22;44276;49.534;6.378;2023-03-31T00:34:02;12.40;99.90
53776;DHT22;44276;49.534;6.378;2023-03-31T00:36:30;12.40;99.90
53776;DHT22;44276;49.534;6.378;2023-03-31T00:39:05;12.30;99.90
53776;DHT22;44276;49.534;6.378;2023-03-31T00:41:35;12.20;99.90
53776;DHT22;44276;49.534;6.378;2023-03-31T00:44:11;12.10;99.90
53776;DHT22;44276;49.534;6.378;2023-03-31T00:46:49;12.10;99.90
53776;DHT22;44276;49.534;6.378;2023-03-31T00:49:25;11.90;99.90
53776;DHT22;44276;49.534;6.378;2023-03-31T00:51:59;11.70;99.90
53776;DHT22;44276;49.534;6.378;2023-03-31T00:54:33;11.50;99.90
53776;DHT22;44276;49.534;6.378;2023-03-31T00:57:04;11.40;99.90
53776;DHT22;44276;49.534;6.378;2023-03-31T00:59:38;11.30;99.90
53776;DHT22;44276;49.534;6.378;2023-03-31T01:02:11;11.30;99.90
53776;DHT22;44276;49.534;6.378;2023-03-31T01:04:44;11.30;99.90
53776;DHT22;44276;49.534;6.378;2023-03-31T01:07:24;11.30;99.90
53776;DHT22;44276;49.534;6.378;2023-03-31T01:09:59;11.40;99.90
53776;DHT22;44276;49.534;6.378;2023-03-31T01:12:29;11.40;99.90
53776;DHT22;44276;49.534;6.378;2023-03-31T01:15:00;11.20;99.90
53776;DHT22;44276;49.534;6.378;2023-03-31T01:17:31;11.00;99.90
53776;DHT22;44276;49.534;6.378;2023-03-31T01:20:07;10.90;99.90
53776;DHT22;44276;49.534;6.378;2023-03-31T01:23:18;10.80;99.90
53776;DHT22;44276;49.534;6.378;2023-03-31T01:30:08;10.70;99.90
53776;DHT22;44276;49.534;6.378;2023-03-31T01:40:05;10.60;99.90
53776;DHT22;44276;49.534;6.378;2023-03-31T01:42:55;10.60;99.90
53776;DHT22;44276;49.534;6.378;2023-03-31T01:45:37;10.50;99.90
53776;DHT22;44276;49.534;6.378;2023-03-31T01:48:15;10.50;99.90
53776;DHT22;44276;49.534;6.378;2023-03-31T01:50:50;10.50;99.90
53776;DHT22;44276;49.534;6.378;2023-03-31T01:53:28;10.50;99.90
53776;DHT22;44276;49.534;6.378;2023-03-31T01:56:07;10.50;99.90
53776;DHT22;44276;49.534;6.378;2023-03-31T01:58:42;10.40;99.90
53776;DHT22;44276;49.534;6.378;2023-03-31T02:01:20;10.30;99.90
53776;DHT22;44276;49.534;6.378;2023-03-31T02:03:59;10.20;99.90
53776;DHT22;44276;49.534;6.378;2023-03-31T02:06:35;10.10;99.90
53776;DHT22;44276;49.534;6.378;2023-03-31T02:09:10;10.10;99.90
53776;DHT22;44276;49.534;6.378;2023-03-31T02:11:45;10.10;99.90
53776;DHT22;44276;49.534;6.378;2023-03-31T02:14:19;10.10;99.90
53776;DHT22;44276;49.534;6.378;2023-03-31T02:16:54;10.00;99.90
53776;DHT22;44276;49.534;6.378;2023-03-31T02:19:28;9.90;99.90
53776;DHT22;44276;49.534;6.378;2023-03-31T02:22:08;9.90;99.90
53776;DHT22;44276;49.534;6.378;2023-03-31T02:24:40;9.90;99.90
53776;DHT22;44276;49.534;6.378;2023-03-31T02:27:14;10.00;99.90
53776;DHT22;44276;49.534;6.378;2023-03-31T02:29:48;10.00;99.90
53776;DHT22;44276;49.534;6.378;2023-03-31T02:32:20;10.00;99.90
53776;DHT22;44276;49.534;6.378;2023-03-31T02:34:52;10.00;99.90
53776;DHT22;44276;49.534;6.378;2023-03-31T02:37:21;10.00;99.90
53776;DHT22;44276;49.534;6.378;2023-03-31T02:39:51;10.00;99.90
53776;DHT22;44276;49.534;6.378;2023-03-31T02:42:23;10.00;99.90
53776;DHT22;44276;49.534;6.378;2023-03-31T02:44:52;10.00;99.90
53776;DHT22;44276;49.534;6.378;2023-03-31T02:47:21;10.00;99.90
53776;DHT22;44276;49.534;6.378;2023-03-31T02:49:53;10.00;99.90
53776;DHT22;44276;49.534;6.378;2023-03-31T02:52:38;9.90;99.90
53776;DHT22;44276;49.534;6.378;2023-03-31T02:55:29;9.80;99.90
53776;DHT22;44276;49.534;6.378;2023-03-31T02:58:44;9.90;99.90
53776;DHT22;44276;49.534;6.378;2023-03-31T03:01:36;9.90;99.90
53776;DHT22;44276;49.534;6.378;2023-03-31T03:04:29;9.90;99.90
53776;DHT22;44276;49.534;6.378;2023-03-31T03:07:12;9.80;99.90
53776;DHT22;44276;49.534;6.378;2023-03-31T03:09:56;9.80;99.90
53776;DHT22;44276;49.534;6.378;2023-03-31T03:12:35;9.80;99.90
53776;DHT22;44276;49.534;6.378;2023-03-31T03:15:12;9.90;99.90
53776;DHT22;44276;49.534;6.378;2023-03-31T03:17:46;10.00;99.90
53776;DHT22;44276;49.534;6.378;2023-03-31T03:20:19;9.90;99.90
53776;DHT22;44276;49.534;6.378;2023-03-31T03:22:47;9.80;99.90
53776;DHT22;44276;49.534;6.378;2023-03-31T03:25:17;9.70;99.90
53776;DHT22;44276;49.534;6.378;2023-03-31T03:27:46;9.70;99.90
53776;DHT22;44276;49.534;6.378;2023-03-31T03:30:16;9.60;99.90
53776;DHT22;44276;49.534;6.378;2023-03-31T03:32:44;9.60;99.90
53776;DHT22;44276;49.534;6.378;2023-03-31T03:35:13;9.50;99.90
53776;DHT22;44276;49.534;6.378;2023-03-31T03:37:41;9.50;99.90
53776;DHT22;44276;49.534;6.378;2023-03-31T03:40:10;9.40;99.90
53776;DHT22;44276;49.534;6.378;2023-03-31T03:42:38;9.40;99.90
53776;DHT22;44276;49.534;6.378;2023-03-31T03:45:07;9.30;99.90
53776;DHT22;44276;49.534;6.378;2023-03-31T03:47:37;9.30;99.90
53776;DHT22;44276;49.534;6.378;2023-03-31T03:50:06;9.30;99.90
53776;DHT22;44276;49.534;6.378;2023-03-31T03:52:35;9.30;99.90
53776;DHT22;44276;49.534;6.378;2023-03-31T03:55:05;9.30;99.90
53776;DHT22;44276;49.534;6.378;2023-03-31T03:57:33;9.30;99.90
53776;DHT22;44276;49.534;6.378;2023-03-31T04:00:02;9.30;99.90
53776;DHT22;44276;49.534;6.378;2023-03-31T04:02:36;9.30;99.90
53776;DHT22;44276;49.534;6.378;2023-03-31T04:05:05;9.30;99.90
53776;DHT22;44276;49.534;6.378;2023-03-31T04:07:34;9.30;99.90
53776;DHT22;44276;49.534;6.378;2023-03-31T04:10:03;9.20;99.90
53776;DHT22;44276;49.534;6.378;2023-03-31T04:12:33;9.20;99.90
53776;DHT22;44276;49.534;6.378;2023-03-31T04:15:02;9.20;99.90
53776;DHT22;44276;49.534;6.378;2023-03-31T04:17:31;9.30;99.90
53776;DHT22;44276;49.534;6.378;2023-03-31T04:20:03;9.30;99.90
53776;DHT22;44276;49.534;6.378;2023-03-31T04:22:35;9.30;99.90
53776;DHT22;44276;49.534;6.378;2023-03-31T04:25:08;9.40;99.90
53776;DHT22;44276;49.534;6.378;2023-03-31T04:27:42;9.40;99.90
53776;DHT22;44276;49.534;6.378;2023-03-31T04:30:13;9.40;99.90
53776;DHT22;44276;49.534;6.378;2023-03-31T04:32:49;9.40;99.90
53776;DHT22;44276;49.534;6.378;2023-03-31T04:35:21;9.40;99.90
53776;DHT22;44276;49.534;6.378;2023-03-31T04:37:51;9.40;99.90
53776;DHT22;44276;49.534;6.378;2023-03-31T04:40:24;9.40;99.90
53776;DHT22;44276;49.534;6.378;2023-03-31T04:42:53;9.40;99.90
53776;DHT22;44276;49.534;6.378;2023-03-31T04:45:21;9.50;99.90
53776;DHT22;44276;49.534;6.378;2023-03-31T04:47:49;9.40;99.90
53776;DHT22;44276;49.534;6.378;2023-03-31T04:50:17;9.40;99.90
53776;DHT22;44276;49.534;6.378;2023-03-31T04:52:47;9.40;99.90
53776;DHT22;44276;49.534;6.378;2023-03-31T04:55:16;9.40;99.90
53776;DHT22;44276;49.534;6.378;2023-03-31T04:57:44;9.40;99.90
53776;DHT22;44276;49.534;6.378;2023-03-31T05:00:13;9.40;99.90
53776;DHT22;44276;49.534;6.378;2023-03-31T05:02:42;9.30;99.90
53776;DHT22;44276;49.534;6.378;2023-03-31T05:05:12;9.30;99.90
53776;DHT22;44276;49.534;6.378;2023-03-31T05:07:55;9.30;99.90
53776;DHT22;44276;49.534;6.378;2023-03-31T05:10:24;9.40;99.90
53776;DHT22;44276;49.534;6.378;2023-03-31T05:12:52;9.40;99.90
53776;DHT22;44276;49.534;6.378;2023-03-31T05:15:21;9.50;99.90
53776;DHT22;44276;49.534;6.378;2023-03-31T05:17:50;9.50;99.90
53776;DHT22;44276;49.534;6.378;2023-03-31T05:20:19;9.50;99.90
53776;DHT22;44276;49.534;6.378;2023-03-31T05:22:47;9.60;99.90
53776;DHT22;44276;49.534;6.378;2023-03-31T05:25:17;9.60;99.90
53776;DHT22;44276;49.534;6.378;2023-03-31T05:27:46;9.60;99.90
53776;DHT22;44276;49.534;6.378;2023-03-31T05:30:16;9.60;99.90
53776;DHT22;44276;49.534;6.378;2023-03-31T05:32:45;9.60;99.90
53776;DHT22;44276;49.534;6.378;2023-03-31T05:35:13;9.60;99.90
53776;DHT22;44276;49.534;6.378;2023-03-31T05:37:41;9.70;99.90
53776;DHT22;44276;49.534;6.378;2023-03-31T05:40:10;9.60;99.90
53776;DHT22;44276;49.534;6.378;2023-03-31T05:42:40;9.60;99.90
53776;DHT22;44276;49.534;6.378;2023-03-31T05:45:08;9.40;99.90
53776;DHT22;44276;49.534;6.378;2023-03-31T05:47:38;9.30;99.90
53776;DHT22;44276;49.534;6.378;2023-03-31T05:50:07;9.30;99.90
53776;DHT22;44276;49.534;6.378;2023-03-31T05:52:38;9.30;99.90
53776;DHT22;44276;49.534;6.378;2023-03-31T05:55:08;9.20;99.90
53776;DHT22;44276;49.534;6.378;2023-03-31T05:57:37;9.20;99.90
53776;DHT22;44276;49.534;6.378;2023-03-31T06:00:08;9.20;99.90
53776;DHT22;44276;49.534;6.378;2023-03-31T06:02:38;9.10;99.90
53776;DHT22;44276;49.534;6.378;2023-03-31T06:05:07;9.10;99.90
53776;DHT22;44276;49.534;6.378;2023-03-31T06:07:36;9.20;99.90
53776;DHT22;44276;49.534;6.378;2023-03-31T06:10:05;9.20;99.90
53776;DHT22;44276;49.534;6.378;2023-03-31T06:12:36;9.30;99.90
53776;DHT22;44276;49.534;6.378;2023-03-31T06:15:06;9.50;99.90
53776;DHT22;44276;49.534;6.378;2023-03-31T06:17:35;9.80;99.90
53776;DHT22;44276;49.534;6.378;2023-03-31T06:20:05;10.00;99.90
53776;DHT22;44276;49.534;6.378;2023-03-31T06:22:53;10.10;99.90
53776;DHT22;44276;49.534;6.378;2023-03-31T06:25:21;10.40;99.90
53776;DHT22;44276;49.534;6.378;2023-03-31T06:27:49;10.70;99.90
53776;DHT22;44276;49.534;6.378;2023-03-31T06:30:19;10.90;99.90
53776;DHT22;44276;49.534;6.378;2023-03-31T06:32:47;11.00;99.90
53776;DHT22;44276;49.534;6.378;2023-03-31T06:35:15;11.00;99.90
53776;DHT22;44276;49.534;6.378;2023-03-31T06:37:44;11.00;99.90
53776;DHT22;44276;49.534;6.378;2023-03-31T06:40:12;10.90;99.90
53776;DHT22;44276;49.534;6.378;2023-03-31T06:42:41;10.90;99.90
53776;DHT22;44276;49.534;6.378;2023-03-31T06:45:10;10.90;99.90
53776;DHT22;44276;49.534;6.378;2023-03-31T06:47:40;10.90;99.90
53776;DHT22;44276;49.534;6.378;2023-03-31T06:50:09;10.90;99.90
53776;DHT22;44276;49.534;6.378;2023-03-31T06:52:38;11.10;99.90
53776;DHT22;44276;49.534;6.378;2023-03-31T06:55:08;11.20;99.90
53776;DHT22;44276;49.534;6.378;2023-03-31T06:57:38;11.40;99.90
53776;DHT22;44276;49.534;6.378;2023-03-31T07:00:08;11.50;99.90
53776;DHT22;44276;49.534;6.378;2023-03-31T07:02:37;11.50;99.90
53776;DHT22;44276;49.534;6.378;2023-03-31T07:05:08;11.60;99.90
53776;DHT22;44276;49.534;6.378;2023-03-31T07:07:39;11.70;99.90
53776;DHT22;44276;49.534;6.378;2023-03-31T07:10:11;11.80;99.90
53776;DHT22;44276;49.534;6.378;2023-03-31T07:12:40;12.00;99.90
53776;DHT22;44276;49.534;6.378;2023-03-31T07:15:09;12.10;99.90
53776;DHT22;44276;49.534;6.378;2023-03-31T07:17:37;12.00;99.90
53776;DHT22;44276;49.534;6.378;2023-03-31T07:20:10;11.90;99.90
53776;DHT22;44276;49.534;6.378;2023-03-31T07:22:41;11.80;99.90
53776;DHT22;44276;49.534;6.378;2023-03-31T07:25:11;11.80;99.90
53776;DHT22;44276;49.534;6.378;2023-03-31T07:27:40;11.70;99.90
53776;DHT22;44276;49.534;6.378;2023-03-31T07:30:13;11.70;99.90
53776;DHT22;44276;49.534;6.378;2023-03-31T07:32:44;11.60;99.90
53776;DHT22;44276;49.534;6.378;2023-03-31T07:35:14;11.60;99.90
53776;DHT22;44276;49.534;6.378;2023-03-31T07:37:45;11.90;99.90
53776;DHT22;44276;49.534;6.378;2023-03-31T07:40:17;12.20;99.90
53776;DHT22;44276;49.534;6.378;2023-03-31T07:42:47;12.20;99.90
53776;DHT22;44276;49.534;6.378;2023-03-31T07:45:18;12.20;99.90
53776;DHT22;44276;49.534;6.378;2023-03-31T07:47:48;11.80;99.90
53776;DHT22;44276;49.534;6.378;2023-03-31T07:50:18;11.50;99.90
53776;DHT22;44276;49.534;6.378;2023-03-31T07:52:46;11.30;99.90
53776;DHT22;44276;49.534;6.378;2023-03-31T07:55:15;11.10;99.90
53776;DHT22;44276;49.534;6.378;2023-03-31T07:57:43;11.10;99.90
53776;DHT22;44276;49.534;6.378;2023-03-31T08:00:14;11.10;99.90
53776;DHT22;44276;49.534;6.378;2023-03-31T08:02:43;11.30;99.90
53776;DHT22;44276;49.534;6.378;2023-03-31T08:05:13;11.50;99.90
53776;DHT22;44276;49.534;6.378;2023-03-31T08:07:47;11.90;99.90
53776;DHT22;44276;49.534;6.378;2023-03-31T08:10:20;12.40;99.90
53776;DHT22;44276;49.534;6.378;2023-03-31T08:12:52;12.80;99.90
53776;DHT22;44276;49.534;6.378;2023-03-31T08:15:21;12.80;99.90
53776;DHT22;44276;49.534;6.378;2023-03-31T08:17:50;12.80;99.90
53776;DHT22;44276;49.534;6.378;2023-03-31T08:20:18;12.90;99.90
53776;DHT22;44276;49.534;6.378;2023-03-31T08:22:48;13.40;99.90
53776;DHT22;44276;49.534;6.378;2023-03-31T08:25:16;13.40;99.90
53776;DHT22;44276;49.534;6.378;2023-03-31T08:27:46;13.10;99.90
53776;DHT22;44276;49.534;6.378;2023-03-31T08:30:17;12.60;99.90
53776;DHT22;44276;49.534;6.378;2023-03-31T08:32:46;12.20;99.90
53776;DHT22;44276;49.534;6.378;2023-03-31T08:35:15;12.10;99.90
53776;DHT22;44276;49.534;6.378;2023-03-31T08:37:43;12.20;99.90
53776;DHT22;44276;49.534;6.378;2023-03-31T08:40:17;13.00;99.90
53776;DHT22;44276;49.534;6.378;2023-03-31T08:42:51;13.50;99.90
53776;DHT22;44276;49.534;6.378;2023-03-31T08:45:24;14.30;99.90
53776;DHT22;44276;49.534;6.378;2023-03-31T08:48:01;15.40;70.10
53776;DHT22;44276;49.534;6.378;2023-03-31T08:50:35;15.00;62.90
53776;DHT22;44276;49.534;6.378;2023-03-31T08:53:19;15.30;65.50
53776;DHT22;44276;49.534;6.378;2023-03-31T08:55:54;15.30;52.40
53776;DHT22;44276;49.534;6.378;2023-03-31T08:58:33;15.30;54.70
53776;DHT22;44276;49.534;6.378;2023-03-31T09:01:14;15.40;57.60
53776;DHT22;44276;49.534;6.378;2023-03-31T09:03:58;15.00;56.30
53776;DHT22;44276;49.534;6.378;2023-03-31T09:06:41;14.60;53.60
53776;DHT22;44276;49.534;6.378;2023-03-31T09:09:17;14.40;53.90
53776;DHT22;44276;49.534;6.378;2023-03-31T09:11:56;14.40;50.90
53776;DHT22;44276;49.534;6.378;2023-03-31T09:14:30;14.30;57.20
53776;DHT22;44276;49.534;6.378;2023-03-31T09:17:15;14.10;54.30
53776;DHT22;44276;49.534;6.378;2023-03-31T09:19:51;14.00;60.60
53776;DHT22;44276;49.534;6.378;2023-03-31T09:22:24;13.90;62.90
53776;DHT22;44276;49.534;6.378;2023-03-31T09:25:01;13.90;54.60
53776;DHT22;44276;49.534;6.378;2023-03-31T09:27:34;13.60;60.80
53776;DHT22;44276;49.534;6.378;2023-03-31T09:30:10;13.50;72.00
53776;DHT22;44276;49.534;6.378;2023-03-31T09:32:44;13.60;65.00
53776;DHT22;44276;49.534;6.378;2023-03-31T09:35:16;13.60;65.30
53776;DHT22;44276;49.534;6.378;2023-03-31T09:37:48;13.60;58.70
53776;DHT22;44276;49.534;6.378;2023-03-31T09:40:19;13.70;57.20
53776;DHT22;44276;49.534;6.378;2023-03-31T09:42:57;13.80;57.40
53776;DHT22;44276;49.534;6.378;2023-03-31T09:45:28;14.30;52.90
53776;DHT22;44276;49.534;6.378;2023-03-31T09:48:01;14.50;46.30
53776;DHT22;44276;49.534;6.378;2023-03-31T09:50:39;14.30;49.40
53776;DHT22;44276;49.534;6.378;2023-03-31T09:53:17;14.30;52.60
53776;DHT22;44276;49.534;6.378;2023-03-31T09:55:52;14.30;52.00
53776;DHT22;44276;49.534;6.378;2023-03-31T09:58:24;14.20;48.80
53776;DHT22;44276;49.534;6.378;2023-03-31T10:00:59;13.90;57.70
53776;DHT22;44276;49.534;6.378;2023-03-31T10:03:30;13.50;61.90
53776;DHT22;44276;49.534;6.378;2023-03-31T10:06:08;13.70;64.60
53776;DHT22;44276;49.534;6.378;2023-03-31T10:08:39;14.00;51.70
53776;DHT22;44276;49.534;6.378;2023-03-31T10:11:11;14.10;53.70
53776;DHT22;44276;49.534;6.378;2023-03-31T10:13:47;14.10;54.30
53776;DHT22;44276;49.534;6.378;2023-03-31T10:16:29;14.20;54.00
53776;DHT22;44276;49.534;6.378;2023-03-31T10:19:16;14.20;51.80
53776;DHT22;44276;49.534;6.378;2023-03-31T10:21:54;14.40;48.80
53776;DHT22;44276;49.534;6.378;2023-03-31T10:24:25;15.00;45.60
53776;DHT22;44276;49.534;6.378;2023-03-31T10:27:05;15.50;37.70
53776;DHT22;44276;49.534;6.378;2023-03-31T10:29:45;15.40;36.20
53776;DHT22;44276;49.534;6.378;2023-03-31T10:32:19;14.90;40.60
53776;DHT22;44276;49.534;6.378;2023-03-31T10:34:51;14.70;44.60
53776;DHT22;44276;49.534;6.378;2023-03-31T10:37:22;14.40;49.40
53776;DHT22;44276;49.534;6.378;2023-03-31T10:39:56;14.80;48.20
53776;DHT22;44276;49.534;6.378;2023-03-31T10:42:27;15.70;41.00
53776;DHT22;44276;49.534;6.378;2023-03-31T10:45:12;16.00;37.60
53776;DHT22;44276;49.534;6.378;2023-03-31T10:48:05;15.80;39.50
53776;DHT22;44276;49.534;6.378;2023-03-31T10:50:43;15.50;40.00
53776;DHT22;44276;49.534;6.378;2023-03-31T10:53:14;15.30;38.70
53776;DHT22;44276;49.534;6.378;2023-03-31T10:55:53;14.60;43.30
53776;DHT22;44276;49.534;6.378;2023-03-31T10:58:38;13.90;48.30
53776;DHT22;44276;49.534;6.378;2023-03-31T11:01:42;13.40;93.00
53776;DHT22;44276;49.534;6.378;2023-03-31T11:04:46;13.70;75.10
53776;DHT22;44276;49.534;6.378;2023-03-31T11:07:35;13.60;76.00
53776;DHT22;44276;49.534;6.378;2023-03-31T11:10:22;13.20;92.10
53776;DHT22;44276;49.534;6.378;2023-03-31T11:13:09;13.00;96.70
53776;DHT22;44276;49.534;6.378;2023-03-31T11:15:49;12.80;98.40
53776;DHT22;44276;49.534;6.378;2023-03-31T11:18:36;12.80;99.90
53776;DHT22;44276;49.534;6.378;2023-03-31T11:21:21;13.50;77.80
53776;DHT22;44276;49.534;6.378;2023-03-31T11:24:03;13.20;95.80
53776;DHT22;44276;49.534;6.378;2023-03-31T11:26:42;12.50;99.90
53776;DHT22;44276;49.534;6.378;2023-03-31T11:29:31;11.40;99.90
53776;DHT22;44276;49.534;6.378;2023-03-31T11:35:43;10.20;99.90
53776;DHT22;44276;49.534;6.378;2023-03-31T11:38:57;10.20;99.90
53776;DHT22;44276;49.534;6.378;2023-03-31T11:41:40;10.20;99.90
53776;DHT22;44276;49.534;6.378;2023-03-31T11:44:17;9.90;99.90
53776;DHT22;44276;49.534;6.378;2023-03-31T11:46:52;9.90;99.90
53776;DHT22;44276;49.534;6.378;2023-03-31T11:49:27;10.40;99.90
53776;DHT22;44276;49.534;6.378;2023-03-31T11:52:02;11.40;99.90
53776;DHT22;44276;49.534;6.378;2023-03-31T11:54:40;12.40;99.90
53776;DHT22;44276;49.534;6.378;2023-03-31T11:57:16;12.80;99.90
53776;DHT22;44276;49.534;6.378;2023-03-31T11:59:55;12.80;99.90
53776;DHT22;44276;49.534;6.378;2023-03-31T12:02:31;13.30;99.90
53776;DHT22;44276;49.534;6.378;2023-03-31T12:05:09;13.40;99.90
53776;DHT22;44276;49.534;6.378;2023-03-31T12:07:45;14.10;90.70
53776;DHT22;44276;49.534;6.378;2023-03-31T12:10:20;14.20;72.80
53776;DHT22;44276;49.534;6.378;2023-03-31T12:12:54;14.20;90.00
53776;DHT22;44276;49.534;6.378;2023-03-31T12:15:31;14.30;73.10
53776;DHT22;44276;49.534;6.378;2023-03-31T12:18:11;14.30;71.80
53776;DHT22;44276;49.534;6.378;2023-03-31T12:20:46;14.90;71.90
53776;DHT22;44276;49.534;6.378;2023-03-31T12:23:22;16.10;54.80
53776;DHT22;44276;49.534;6.378;2023-03-31T12:25:59;17.10;46.20
53776;DHT22;44276;49.534;6.378;2023-03-31T12:28:35;17.90;39.10
53776;DHT22;44276;49.534;6.378;2023-03-31T12:31:08;17.20;39.20
53776;DHT22;44276;49.534;6.378;2023-03-31T12:33:43;16.70;37.70
53776;DHT22;44276;49.534;6.378;2023-03-31T12:36:27;16.60;37.70
53776;DHT22;44276;49.534;6.378;2023-03-31T12:39:21;16.40;41.10
53776;DHT22;44276;49.534;6.378;2023-03-31T12:42:12;16.40;36.10
53776;DHT22;44276;49.534;6.378;2023-03-31T12:45:01;16.10;38.00
53776;DHT22;44276;49.534;6.378;2023-03-31T12:48:12;16.30;39.50
53776;DHT22;44276;49.534;6.378;2023-03-31T12:51:11;16.30;36.60
53776;DHT22;44276;49.534;6.378;2023-03-31T12:54:00;16.30;38.10
53776;DHT22;44276;49.534;6.378;2023-03-31T12:57:06;16.20;37.30
53776;DHT22;44276;49.534;6.378;2023-03-31T12:59:44;15.30;41.40
53776;DHT22;44276;49.534;6.378;2023-03-31T13:02:30;14.40;53.80
53776;DHT22;44276;49.534;6.378;2023-03-31T13:04:58;12.80;97.10
53776;DHT22;44276;49.534;6.378;2023-03-31T13:08:02;12.10;99.90
53776;DHT22;44276;49.534;6.378;2023-03-31T13:10:32;11.80;99.90
53776;DHT22;44276;49.534;6.378;2023-03-31T13:13:19;12.40;99.90
53776;DHT22;44276;49.534;6.378;2023-03-31T13:15:49;13.20;97.10
53776;DHT22;44276;49.534;6.378;2023-03-31T13:18:21;13.60;86.10
53776;DHT22;44276;49.534;6.378;2023-03-31T13:20:57;14.30;72.40
53776;DHT22;44276;49.534;6.378;2023-03-31T13:23:30;15.00;65.30
53776;DHT22;44276;49.534;6.378;2023-03-31T13:26:01;15.40;53.90
53776;DHT22;44276;49.534;6.378;2023-03-31T13:28:39;15.30;50.60
53776;DHT22;44276;49.534;6.378;2023-03-31T13:31:10;14.90;51.20
53776;DHT22;44276;49.534;6.378;2023-03-31T13:33:52;15.10;50.20
53776;DHT22;44276;49.534;6.378;2023-03-31T13:36:47;15.30;47.20
53776;DHT22;44276;49.534;6.378;2023-03-31T13:43:08;15.30;45.60
53776;DHT22;44276;49.534;6.378;2023-03-31T13:46:00;15.20;43.90
53776;DHT22;44276;49.534;6.378;2023-03-31T13:48:52;15.20;44.30
53776;DHT22;44276;49.534;6.378;2023-03-31T13:51:47;15.20;47.10
53776;DHT22;44276;49.534;6.378;2023-03-31T13:54:50;14.90;45.10
53776;DHT22;44276;49.534;6.378;2023-03-31T14:01:20;15.50;40.90
53776;DHT22;44276;49.534;6.378;2023-03-31T14:04:45;15.70;36.60
53776;DHT22;44276;49.534;6.378;2023-03-31T14:07:42;15.40;39.00
53776;DHT22;44276;49.534;6.378;2023-03-31T14:10:27;15.30;37.20
53776;DHT22;44276;49.534;6.378;2023-03-31T14:13:08;15.30;39.70
53776;DHT22;44276;49.534;6.378;2023-03-31T14:15:41;15.10;39.50
53776;DHT22;44276;49.534;6.378;2023-03-31T14:18:22;15.10;36.40
53776;DHT22;44276;49.534;6.378;2023-03-31T14:21:04;15.00;38.70
53776;DHT22;44276;49.534;6.378;2023-03-31T14:23:47;14.80;44.90
53776;DHT22;44276;49.534;6.378;2023-03-31T14:26:39;14.60;41.00
53776;DHT22;44276;49.534;6.378;2023-03-31T14:29:22;14.90;40.30
53776;DHT22;44276;49.534;6.378;2023-03-31T14:32:03;14.80;38.60
53776;DHT22;44276;49.534;6.378;2023-03-31T14:34:52;14.90;39.10
53776;DHT22;44276;49.534;6.378;2023-03-31T14:37:30;15.30;37.50
53776;DHT22;44276;49.534;6.378;2023-03-31T14:40:00;15.40;35.10
53776;DHT22;44276;49.534;6.378;2023-03-31T14:42:36;15.10;36.50
53776;DHT22;44276;49.534;6.378;2023-03-31T14:45:16;15.00;38.70
53776;DHT22;44276;49.534;6.378;2023-03-31T14:47:55;15.00;37.20
53776;DHT22;44276;49.534;6.378;2023-03-31T14:50:33;15.00;36.10
53776;DHT22;44276;49.534;6.378;2023-03-31T14:53:02;14.80;37.00
53776;DHT22;44276;49.534;6.378;2023-03-31T14:55:33;14.60;36.40
53776;DHT22;44276;49.534;6.378;2023-03-31T14:58:05;14.50;40.20
53776;DHT22;44276;49.534;6.378;2023-03-31T15:00:39;14.50;38.80
53776;DHT22;44276;49.534;6.378;2023-03-31T15:03:12;14.30;41.10
53776;DHT22;44276;49.534;6.378;2023-03-31T15:05:44;13.80;56.30
53776;DHT22;44276;49.534;6.378;2023-03-31T15:08:18;13.20;68.30
53776;DHT22;44276;49.534;6.378;2023-03-31T15:10:50;13.30;72.50
53776;DHT22;44276;49.534;6.378;2023-03-31T15:13:39;13.60;65.60
53776;DHT22;44276;49.534;6.378;2023-03-31T15:16:34;13.90;59.30
53776;DHT22;44276;49.534;6.378;2023-03-31T15:19:13;14.20;50.80
53776;DHT22;44276;49.534;6.378;2023-03-31T15:21:44;14.30;48.70
53776;DHT22;44276;49.534;6.378;2023-03-31T15:24:13;14.30;48.30
53776;DHT22;44276;49.534;6.378;2023-03-31T15:26:45;14.30;47.20
53776;DHT22;44276;49.534;6.378;2023-03-31T15:29:23;14.30;47.20
53776;DHT22;44276;49.534;6.378;2023-03-31T15:32:07;14.00;50.60
53776;DHT22;44276;49.534;6.378;2023-03-31T15:34:42;13.90;54.90
53776;DHT22;44276;49.534;6.378;2023-03-31T15:37:13;13.80;52.90
53776;DHT22;44276;49.534;6.378;2023-03-31T15:39:44;13.90;50.80
53776;DHT22;44276;49.534;6.378;2023-03-31T15:42:14;14.10;47.00
53776;DHT22;44276;49.534;6.378;2023-03-31T15:44:46;14.30;43.90
53776;DHT22;44276;49.534;6.378;2023-03-31T15:47:22;14.40;41.20
53776;DHT22;44276;49.534;6.378;2023-03-31T15:49:57;14.40;40.80
53776;DHT22;44276;49.534;6.378;2023-03-31T15:52:35;14.20;41.00
53776;DHT22;44276;49.534;6.378;2023-03-31T15:55:23;14.20;42.40
53776;DHT22;44276;49.534;6.378;2023-03-31T15:57:58;14.00;43.50
53776;DHT22;44276;49.534;6.378;2023-03-31T16:00:41;13.80;56.20
53776;DHT22;44276;49.534;6.378;2023-03-31T16:03:17;12.40;99.90
53776;DHT22;44276;49.534;6.378;2023-03-31T16:06:02;11.40;99.90
53776;DHT22;44276;49.534;6.378;2023-03-31T16:09:17;11.00;99.90
53776;DHT22;44276;49.534;6.378;2023-03-31T16:12:14;11.20;99.90
53776;DHT22;44276;49.534;6.378;2023-03-31T16:14:58;11.60;99.90
53776;DHT22;44276;49.534;6.378;2023-03-31T16:17:39;12.00;99.90
53776;DHT22;44276;49.534;6.378;2023-03-31T16:20:41;12.30;99.90
53776;DHT22;44276;49.534;6.378;2023-03-31T16:23:57;12.70;99.90
53776;DHT22;44276;49.534;6.378;2023-03-31T16:26:46;13.00;81.80
53776;DHT22;44276;49.534;6.378;2023-03-31T16:29:20;13.10;67.10
53776;DHT22;44276;49.534;6.378;2023-03-31T16:32:05;13.00;71.90
53776;DHT22;44276;49.534;6.378;2023-03-31T16:34:51;12.90;74.50
53776;DHT22;44276;49.534;6.378;2023-03-31T16:37:23;13.00;80.80
53776;DHT22;44276;49.534;6.378;2023-03-31T16:39:52;13.00;94.00
53776;DHT22;44276;49.534;6.378;2023-03-31T16:42:24;12.90;95.90
53776;DHT22;44276;49.534;6.378;2023-03-31T16:44:52;12.90;99.90
53776;DHT22;44276;49.534;6.378;2023-03-31T16:47:39;13.00;99.90
53776;DHT22;44276;49.534;6.378;2023-03-31T16:50:14;13.30;94.80
53776;DHT22;44276;49.534;6.378;2023-03-31T16:52:47;13.30;92.50